createdAt,value
2019-03-12T00:00:08.847Z,38.17
2019-03-12T00:02:37.316Z,38.14
2019-03-12T00:05:08.390Z,38.17
2019-03-12T00:07:36.803Z,38.18
2019-03-12T00:10:09.296Z,38.16
2019-03-12T00:12:37.792Z,38.16
2019-03-12T00:15:09.200Z,38.18
2019-03-12T00:17:37.640Z,38.21
2019-03-12T00:20:07.520Z,38.20
2019-03-12T00:22:36.039Z,38.18
2019-03-12T00:25:04.801Z,38.24
2019-03-12T00:27:33.241Z,38.27
2019-03-12T00:30:01.659Z,38.25
2019-03-12T00:32:30.106Z,38.26
2019-03-12T00:34:58.510Z,38.25
2019-03-12T00:37:26.944Z,38.24
2019-03-12T00:39:55.376Z,38.25
2019-03-12T00:42:23.769Z,38.29
2019-03-12T00:44:52.175Z,38.25
2019-03-12T00:47:20.612Z,38.23
2019-03-12T00:49:49.056Z,38.25
2019-03-12T00:52:17.467Z,38.25
2019-03-12T00:54:45.895Z,38.26
2019-03-12T00:57:14.304Z,38.23
2019-03-12T00:59:42.720Z,38.23
2019-03-12T01:02:11.160Z,38.24
2019-03-12T01:04:39.576Z,38.29
2019-03-12T01:07:08.083Z,38.28
2019-03-12T01:09:36.562Z,38.27
2019-03-12T01:12:05.257Z,38.30
2019-03-12T01:14:33.672Z,38.27
2019-03-12T01:17:02.117Z,38.34
2019-03-12T01:19:30.552Z,38.32
2019-03-12T01:21:58.998Z,38.35
2019-03-12T01:24:27.441Z,38.39
2019-03-12T01:26:55.862Z,38.38
2019-03-12T01:29:24.309Z,38.41
2019-03-12T01:31:52.722Z,38.41
2019-03-12T01:34:21.133Z,38.39
2019-03-12T01:36:49.567Z,38.37
2019-03-12T01:39:17.993Z,38.39
2019-03-12T01:41:46.400Z,38.37
2019-03-12T01:44:14.832Z,38.39
2019-03-12T01:46:43.251Z,38.38
2019-03-12T01:49:11.706Z,38.33
2019-03-12T01:51:40.142Z,38.43
2019-03-12T01:54:08.551Z,38.40
2019-03-12T01:56:36.981Z,38.48
2019-03-12T01:59:05.388Z,38.46
2019-03-12T02:01:33.822Z,38.42
2019-03-12T02:04:02.414Z,38.40
2019-03-12T02:06:30.849Z,38.47
2019-03-12T02:08:59.267Z,38.48
2019-03-12T02:11:27.843Z,38.48
2019-03-12T02:13:56.305Z,38.46
2019-03-12T02:16:24.741Z,38.42
2019-03-12T02:18:53.171Z,38.44
2019-03-12T02:21:21.610Z,38.51
2019-03-12T02:23:50.055Z,38.50
2019-03-12T02:26:18.455Z,38.53
2019-03-12T02:28:46.857Z,38.51
2019-03-12T02:31:15.332Z,38.50
2019-03-12T02:33:43.742Z,38.56
2019-03-12T02:36:12.251Z,38.54
2019-03-12T02:38:40.685Z,38.58
2019-03-12T02:41:09.209Z,38.56
2019-03-12T02:43:37.634Z,38.60
2019-03-12T02:46:06.056Z,38.64
2019-03-12T02:48:34.486Z,38.64
2019-03-12T02:51:02.943Z,38.65
2019-03-12T02:53:31.348Z,38.67
2019-03-12T02:56:01.780Z,38.67
2019-03-12T02:58:29.906Z,38.66
2019-03-12T03:00:58.423Z,38.65
2019-03-12T03:03:26.862Z,38.63
2019-03-12T03:06:05.920Z,38.59
2019-03-12T03:08:35.311Z,38.64
2019-03-12T03:11:03.763Z,38.65
2019-03-12T03:13:32.188Z,38.62
2019-03-12T03:16:00.673Z,38.57
2019-03-12T03:18:29.120Z,38.63
2019-03-12T03:20:57.615Z,38.67
2019-03-12T03:23:26.050Z,38.70
2019-03-12T03:25:54.478Z,38.67
2019-03-12T03:28:22.894Z,38.69
2019-03-12T03:30:51.400Z,38.67
2019-03-12T03:33:19.820Z,38.66
2019-03-12T03:35:48.252Z,38.71
2019-03-12T03:38:16.690Z,38.67
2019-03-12T03:40:45.107Z,38.64
2019-03-12T03:43:13.517Z,38.69
2019-03-12T03:45:42.081Z,38.68
2019-03-12T03:48:10.562Z,38.70
2019-03-12T03:50:38.968Z,38.70
2019-03-12T03:53:07.400Z,38.71
2019-03-12T03:55:35.850Z,38.72
2019-03-12T03:58:04.319Z,38.73
2019-03-12T04:00:32.795Z,38.78
2019-03-12T04:03:01.199Z,38.75
2019-03-12T04:05:29.635Z,38.78
2019-03-12T04:07:58.067Z,38.79
2019-03-12T04:10:26.526Z,38.75
2019-03-12T04:12:55.029Z,38.78
2019-03-12T04:15:23.463Z,38.81
2019-03-12T04:17:51.940Z,38.83
2019-03-12T04:20:20.424Z,38.78
2019-03-12T04:22:48.967Z,38.82
2019-03-12T04:25:17.561Z,38.87
2019-03-12T04:27:45.970Z,38.77
2019-03-12T04:30:19.109Z,38.83
2019-03-12T04:32:47.542Z,38.83
2019-03-12T04:35:33.313Z,38.79
2019-03-12T04:38:01.763Z,38.84
2019-03-12T04:40:30.639Z,38.82
2019-03-12T04:42:59.078Z,38.82
2019-03-12T04:45:27.499Z,38.86
2019-03-12T04:47:55.974Z,38.82
2019-03-12T04:50:24.408Z,38.81
2019-03-12T04:52:52.850Z,38.88
2019-03-12T04:55:21.296Z,38.87
2019-03-12T04:57:49.734Z,38.85
2019-03-12T05:00:19.355Z,38.81
2019-03-12T05:02:47.776Z,38.91
2019-03-12T05:05:16.349Z,38.94
2019-03-12T05:07:44.768Z,38.95
2019-03-12T05:10:16.786Z,38.93
2019-03-12T05:12:45.275Z,38.91
2019-03-12T05:15:18.422Z,38.91
2019-03-12T05:17:47.087Z,38.88
2019-03-12T05:20:16.244Z,38.88
2019-03-12T05:22:44.678Z,38.86
2019-03-12T05:25:14.335Z,38.86
2019-03-12T05:27:42.818Z,38.94
2019-03-12T05:30:14.073Z,38.91
2019-03-12T05:32:42.490Z,38.99
2019-03-12T05:35:10.924Z,39.00
2019-03-12T05:37:39.338Z,39.08
2019-03-12T05:40:12.816Z,39.08
2019-03-12T05:42:41.312Z,39.08
2019-03-12T05:45:14.173Z,39.01
2019-03-12T05:47:42.754Z,39.00
2019-03-12T05:50:13.771Z,38.98
2019-03-12T05:52:42.196Z,38.96
2019-03-12T05:55:12.742Z,38.96
2019-03-12T05:57:41.175Z,39.01
2019-03-12T06:00:19.810Z,39.04
2019-03-12T06:02:48.383Z,39.04
2019-03-12T06:05:16.930Z,38.99
2019-03-12T06:07:45.642Z,39.00
2019-03-12T06:10:17.276Z,39.01
2019-03-12T06:12:45.706Z,39.00
2019-03-12T06:15:15.561Z,38.98
2019-03-12T06:17:43.982Z,39.03
2019-03-12T06:20:13.952Z,39.03
2019-03-12T06:22:42.533Z,38.97
2019-03-12T06:25:11.409Z,38.94
2019-03-12T06:27:39.822Z,38.89
2019-03-12T06:30:14.068Z,38.88
2019-03-12T06:32:50.044Z,38.85
2019-03-12T06:35:22.834Z,38.80
2019-03-12T06:37:52.896Z,38.72
2019-03-12T06:40:22.960Z,38.71
2019-03-12T06:42:56.198Z,38.73
2019-03-12T06:45:31.867Z,38.78
2019-03-12T06:48:07.769Z,38.78
2019-03-12T06:50:40.500Z,38.75
2019-03-12T06:53:16.268Z,38.74
2019-03-12T06:55:55.159Z,38.76
2019-03-12T06:58:41.154Z,38.74
2019-03-12T07:01:16.684Z,38.75
2019-03-12T07:03:52.759Z,38.68
2019-03-12T07:06:22.834Z,38.50
2019-03-12T07:09:07.969Z,38.39
2019-03-12T07:11:40.518Z,38.25
2019-03-12T07:14:10.570Z,38.10
2019-03-12T07:16:40.637Z,37.80
2019-03-12T07:19:13.530Z,37.63
2019-03-12T07:21:43.578Z,37.37
2019-03-12T07:24:19.547Z,37.13
2019-03-12T07:27:01.704Z,37.01
2019-03-12T07:29:31.782Z,36.90
2019-03-12T07:32:01.829Z,36.77
2019-03-12T07:34:36.509Z,36.68
2019-03-12T07:37:12.610Z,36.64
2019-03-12T07:39:45.404Z,36.53
2019-03-12T07:42:32.248Z,36.32
2019-03-12T07:45:02.326Z,36.13
2019-03-12T07:47:38.184Z,35.87
2019-03-12T07:50:25.650Z,35.67
2019-03-12T07:52:55.719Z,35.54
2019-03-12T07:55:25.795Z,35.35
2019-03-12T07:57:58.535Z,35.24
2019-03-12T08:00:28.588Z,35.20
2019-03-12T08:03:01.665Z,35.16
2019-03-12T08:05:48.202Z,35.00
2019-03-12T08:08:18.285Z,34.95
2019-03-12T08:11:06.499Z,34.90
2019-03-12T08:13:48.841Z,34.79
2019-03-12T08:16:18.922Z,34.66
2019-03-12T08:18:54.752Z,34.49
2019-03-12T08:21:42.954Z,34.40
2019-03-12T08:24:15.480Z,34.36
2019-03-12T08:26:57.758Z,34.10
2019-03-12T08:29:27.819Z,34.09
2019-03-12T08:32:03.874Z,33.78
2019-03-12T08:34:50.245Z,33.73
2019-03-12T08:37:25.769Z,33.50
2019-03-12T08:39:58.773Z,33.19
2019-03-12T08:42:37.641Z,33.18
2019-03-12T08:45:11.201Z,32.84
2019-03-12T08:48:00.435Z,32.72
2019-03-12T08:50:30.509Z,32.52
2019-03-12T08:53:00.593Z,32.35
2019-03-12T08:55:45.363Z,32.21
2019-03-12T08:58:18.507Z,32.00
2019-03-12T09:00:54.629Z,31.80
2019-03-12T09:03:40.830Z,31.66
2019-03-12T09:06:22.716Z,31.48
2019-03-12T09:09:09.194Z,31.26
2019-03-12T09:11:48.321Z,31.08
2019-03-12T09:14:21.111Z,30.88
2019-03-12T09:17:06.143Z,30.74
2019-03-12T09:19:48.559Z,30.70
2019-03-12T09:22:21.429Z,30.65
2019-03-12T09:24:57.455Z,30.58
2019-03-12T09:27:33.143Z,30.50
2019-03-12T09:30:09.429Z,30.39
2019-03-12T09:32:45.463Z,30.34
2019-03-12T09:35:21.629Z,30.30
2019-03-12T09:37:54.511Z,30.29
2019-03-12T09:40:36.579Z,30.33
2019-03-12T09:43:22.967Z,30.31
2019-03-12T09:45:59.047Z,30.33
2019-03-12T09:48:31.817Z,30.31
2019-03-12T09:51:07.687Z,30.29
2019-03-12T09:53:37.761Z,30.21
2019-03-12T09:56:07.809Z,30.07
2019-03-12T09:58:53.067Z,29.96
2019-03-12T10:01:25.991Z,29.90
2019-03-12T10:03:58.845Z,29.79
2019-03-12T10:06:28.890Z,29.65
2019-03-12T10:08:58.970Z,29.37
2019-03-12T10:11:29.373Z,29.23
2019-03-12T10:14:17.199Z,29.14
2019-03-12T10:16:52.949Z,29.01
2019-03-12T10:19:28.761Z,28.77
2019-03-12T10:21:58.936Z,28.72
2019-03-12T10:24:35.021Z,28.67
2019-03-12T10:27:10.875Z,28.68
2019-03-12T10:29:43.537Z,28.64
2019-03-12T10:32:16.364Z,28.67
2019-03-12T10:35:01.261Z,28.59
2019-03-12T10:37:47.521Z,28.50
2019-03-12T10:40:17.625Z,28.40
2019-03-12T10:42:56.203Z,28.18
2019-03-12T10:45:28.713Z,28.09
2019-03-12T10:47:58.525Z,28.02
2019-03-12T10:50:26.953Z,28.01
2019-03-12T10:52:55.379Z,28.11
2019-03-12T10:55:23.811Z,28.24
2019-03-12T10:57:52.229Z,28.37
2019-03-12T11:00:20.791Z,28.44
2019-03-12T11:02:49.274Z,28.51
2019-03-12T11:05:18.759Z,28.58
2019-03-12T11:07:47.367Z,28.68
2019-03-12T11:10:19.655Z,28.83
2019-03-12T11:12:48.325Z,28.92
2019-03-12T11:15:17.046Z,28.88
2019-03-12T11:17:49.790Z,28.78
2019-03-12T11:20:26.705Z,28.76
2019-03-12T11:22:55.189Z,28.82
2019-03-12T11:25:27.886Z,28.92
2019-03-12T11:27:53.748Z,29.03
2019-03-12T11:30:22.800Z,29.06
2019-03-12T11:32:51.213Z,29.01
2019-03-12T11:35:19.655Z,28.91
2019-03-12T11:37:48.074Z,28.79
2019-03-12T11:40:22.001Z,28.63
2019-03-12T11:42:50.650Z,28.51
2019-03-12T11:45:20.641Z,28.34
2019-03-12T11:47:49.461Z,28.19
2019-03-12T11:50:23.064Z,28.17
2019-03-12T11:52:55.631Z,28.31
2019-03-12T11:55:21.673Z,28.45
2019-03-12T11:57:50.137Z,28.48
2019-03-12T12:00:28.593Z,28.60
2019-03-12T12:03:00.206Z,28.55
2019-03-12T12:05:27.693Z,28.69
2019-03-12T12:07:56.165Z,28.75
2019-03-12T12:10:25.079Z,28.71
2019-03-12T12:12:53.579Z,28.85
2019-03-12T12:15:22.156Z,28.96
2019-03-12T12:20:28.805Z,28.96
2019-03-12T12:22:48.657Z,29.08
2019-03-12T12:25:19.289Z,29.19
2019-03-12T12:27:47.718Z,29.25
2019-03-12T12:30:20.966Z,29.33
2019-03-12T12:32:49.548Z,29.11
2019-03-12T12:35:18.072Z,29.40
2019-03-12T12:37:46.497Z,29.18
2019-03-12T12:40:17.154Z,29.36
2019-03-12T12:42:45.709Z,29.12
2019-03-12T12:45:28.347Z,29.29
2019-03-12T12:47:56.783Z,29.55
2019-03-12T12:50:25.493Z,29.46
2019-03-12T12:52:53.997Z,29.50
2019-03-12T12:55:22.508Z,29.55
2019-03-12T12:57:50.951Z,29.54
2019-03-12T13:00:24.242Z,29.49
2019-03-12T13:02:52.732Z,29.57
2019-03-12T13:05:21.160Z,29.61
2019-03-12T13:07:49.729Z,29.40
2019-03-12T13:10:28.265Z,29.42
2019-03-12T13:12:56.754Z,29.65
2019-03-12T13:15:25.369Z,29.69
2019-03-12T13:17:54.023Z,29.35
2019-03-12T13:20:22.467Z,29.21
2019-03-12T13:22:51.054Z,28.87
2019-03-12T13:25:20.038Z,28.69
2019-03-12T13:27:48.534Z,28.50
2019-03-12T13:30:23.842Z,28.38
2019-03-12T13:32:52.351Z,28.09
2019-03-12T13:35:21.004Z,28.23
2019-03-12T13:37:49.882Z,28.10
2019-03-12T13:40:20.251Z,28.13
2019-03-12T13:42:48.763Z,28.07
2019-03-12T13:45:22.536Z,28.24
2019-03-12T13:47:51.025Z,28.22
2019-03-12T13:50:19.638Z,28.30
2019-03-12T13:52:48.034Z,28.48
2019-03-12T13:55:16.780Z,28.55
2019-03-12T13:57:45.534Z,28.40
2019-03-12T14:00:24.157Z,28.63
2019-03-12T14:02:52.668Z,28.69
2019-03-12T14:05:21.139Z,28.70
2019-03-12T14:07:49.735Z,28.72
2019-03-12T14:10:24.172Z,28.62
2019-03-12T14:12:53.743Z,28.72
2019-03-12T14:15:38.698Z,28.83
2019-03-12T14:18:07.352Z,28.60
2019-03-12T14:20:47.643Z,28.74
2019-03-12T14:23:25.192Z,28.84
2019-03-12T14:25:53.627Z,29.32
2019-03-12T14:28:22.280Z,29.54
2019-03-12T14:30:50.808Z,29.61
2019-03-12T14:33:19.408Z,29.77
2019-03-12T14:35:51.694Z,29.81
2019-03-12T14:38:19.377Z,29.12
2019-03-12T14:40:47.982Z,29.36
2019-03-12T14:43:16.681Z,29.74
2019-03-12T14:45:49.394Z,28.76
2019-03-12T14:48:43.766Z,29.12
2019-03-12T14:51:30.748Z,29.12
2019-03-12T14:54:04.740Z,29.19
2019-03-12T14:56:33.232Z,29.76
2019-03-12T14:59:01.818Z,29.30
2019-03-12T15:01:30.376Z,28.79
2019-03-12T15:03:59.176Z,28.84
2019-03-12T15:06:27.688Z,28.81
2019-03-12T15:08:56.198Z,28.73
2019-03-12T15:11:24.711Z,28.53
2019-03-12T15:13:53.219Z,28.39
2019-03-12T15:16:21.639Z,28.47
2019-03-12T15:18:52.055Z,28.34
2019-03-12T15:21:20.291Z,28.12
2019-03-12T15:23:48.694Z,28.30
2019-03-12T15:26:17.218Z,28.03
2019-03-12T15:28:45.638Z,28.45
2019-03-12T15:31:14.107Z,28.18
2019-03-12T15:33:42.517Z,27.92
2019-03-12T15:36:10.981Z,28.10
2019-03-12T15:38:39.422Z,27.99
2019-03-12T15:41:07.846Z,28.26
2019-03-12T15:43:36.285Z,28.87
2019-03-12T15:46:04.766Z,28.12
2019-03-12T15:48:33.204Z,27.50
2019-03-12T15:51:01.653Z,29.52
2019-03-12T15:53:30.084Z,28.58
2019-03-12T15:55:58.515Z,29.98
2019-03-12T15:58:26.969Z,29.85
2019-03-12T16:00:55.404Z,29.68
2019-03-12T16:03:23.841Z,30.21
2019-03-12T16:05:52.293Z,29.83
2019-03-12T16:08:20.703Z,29.29
2019-03-12T16:10:58.027Z,27.66
2019-03-12T16:13:19.400Z,28.67
2019-03-12T16:15:47.818Z,27.97
2019-03-12T16:18:16.241Z,27.92
2019-03-12T16:20:44.653Z,28.07
2019-03-12T16:23:13.171Z,27.77
2019-03-12T16:25:41.578Z,27.64
2019-03-12T16:28:10.039Z,30.83
2019-03-12T16:30:38.448Z,30.30
2019-03-12T16:33:06.889Z,30.78
2019-03-12T16:35:35.479Z,30.62
2019-03-12T16:38:06.864Z,30.28
2019-03-12T16:40:34.164Z,30.88
2019-03-12T16:43:02.582Z,30.75
2019-03-12T16:45:31.033Z,31.39
2019-03-12T16:47:59.530Z,31.12
2019-03-12T16:50:27.963Z,30.64
2019-03-12T16:52:56.485Z,30.60
2019-03-12T16:55:24.982Z,30.46
2019-03-12T16:57:53.397Z,30.66
2019-03-12T17:00:22.481Z,30.09
2019-03-12T17:02:50.917Z,30.30
2019-03-12T17:05:19.327Z,29.85
2019-03-12T17:07:47.734Z,29.43
2019-03-12T17:10:20.310Z,29.15
2019-03-12T17:12:48.798Z,29.88
2019-03-12T17:15:31.011Z,29.63
2019-03-12T17:17:59.457Z,29.46
2019-03-12T17:20:27.972Z,28.68
2019-03-12T17:22:56.435Z,29.40
2019-03-12T17:25:24.920Z,28.51
2019-03-12T17:27:53.367Z,29.32
2019-03-12T17:30:22.834Z,29.19
2019-03-12T17:32:51.346Z,29.28
2019-03-12T17:35:22.510Z,28.73
2019-03-12T17:37:50.933Z,28.64
2019-03-12T17:40:21.225Z,29.29
2019-03-12T17:42:49.640Z,29.07
2019-03-12T17:45:18.256Z,28.52
2019-03-12T17:47:46.726Z,29.22
2019-03-12T17:50:15.501Z,28.95
2019-03-12T17:52:44.002Z,28.82
2019-03-12T17:55:14.246Z,29.06
2019-03-12T17:57:43.024Z,29.48
2019-03-12T18:00:21.581Z,29.68
2019-03-12T18:02:50.081Z,29.72
2019-03-12T18:05:18.607Z,30.42
2019-03-12T18:07:47.228Z,29.87
2019-03-12T18:10:17.193Z,30.33
2019-03-12T18:12:45.804Z,30.02
2019-03-12T18:15:19.927Z,30.38
2019-03-12T18:17:49.054Z,29.80
2019-03-12T18:20:20.480Z,30.07
2019-03-12T18:22:48.930Z,30.02
2019-03-12T18:25:23.102Z,29.72
2019-03-12T18:27:51.551Z,29.95
2019-03-12T18:30:20.025Z,29.66
2019-03-12T18:32:48.493Z,29.73
2019-03-12T18:35:16.973Z,29.78
2019-03-12T18:37:45.490Z,29.53
2019-03-12T18:40:16.744Z,29.32
2019-03-12T18:42:45.189Z,29.56
2019-03-12T18:45:16.411Z,29.69
2019-03-12T18:47:44.857Z,29.79
2019-03-12T18:50:15.163Z,30.02
2019-03-12T18:52:43.644Z,30.23
2019-03-12T18:55:33.391Z,29.14
2019-03-12T18:58:02.746Z,30.30
2019-03-12T19:00:31.909Z,30.34
2019-03-12T19:03:00.543Z,30.44
2019-03-12T19:05:28.975Z,30.46
2019-03-12T19:07:57.491Z,29.59
2019-03-12T19:10:26.003Z,30.34
2019-03-12T19:12:54.417Z,30.62
2019-03-12T19:15:22.966Z,30.19
2019-03-12T19:17:51.427Z,30.87
2019-03-12T19:20:20.502Z,30.52
2019-03-12T19:22:49.080Z,30.85
2019-03-12T19:25:38.112Z,30.85
2019-03-12T19:28:05.422Z,30.97
2019-03-12T19:30:34.082Z,30.93
2019-03-12T19:33:04.218Z,31.00
2019-03-12T19:35:33.289Z,31.32
2019-03-12T19:38:02.547Z,32.18
2019-03-12T19:40:45.344Z,31.11
2019-03-12T19:43:13.873Z,31.27
2019-03-12T19:45:42.470Z,31.37
2019-03-12T19:48:10.888Z,31.51
2019-03-12T19:50:39.774Z,31.39
2019-03-12T19:53:08.191Z,31.08
2019-03-12T19:55:45.410Z,31.33
2019-03-12T19:58:13.809Z,31.14
2019-03-12T20:00:42.913Z,31.79
2019-03-12T20:03:15.158Z,31.61
2019-03-12T20:05:41.540Z,31.47
2019-03-12T20:08:10.133Z,31.65
2019-03-12T20:11:06.437Z,31.81
2019-03-12T20:14:11.230Z,31.57
2019-03-12T20:16:51.686Z,30.79
2019-03-12T20:19:55.015Z,31.59
2019-03-12T20:22:49.156Z,30.77
2019-03-12T20:25:53.922Z,30.43
2019-03-12T20:28:44.936Z,32.08
2019-03-12T20:31:32.742Z,31.84
2019-03-12T20:34:07.117Z,31.86
2019-03-12T20:36:47.716Z,31.56
2019-03-12T20:39:47.699Z,31.42
2019-03-12T20:42:41.769Z,31.38
2019-03-12T20:45:43.668Z,31.31
2019-03-12T20:48:39.204Z,31.57
2019-03-12T20:51:36.644Z,31.15
2019-03-12T20:54:24.841Z,31.25
2019-03-12T20:56:56.351Z,30.92
2019-03-12T21:00:01.202Z,31.40
2019-03-12T21:02:49.105Z,30.93
2019-03-12T21:05:44.931Z,31.31
2019-03-12T21:08:35.898Z,31.09
2019-03-12T21:11:25.821Z,31.22
2019-03-12T21:14:26.074Z,31.23
2019-03-12T21:17:31.010Z,31.03
2019-03-12T21:20:21.847Z,31.12
2019-03-12T21:23:01.881Z,31.22
2019-03-12T21:26:00.335Z,31.12
2019-03-12T21:28:50.079Z,31.14
2019-03-12T21:31:18.681Z,30.86
2019-03-12T21:33:47.093Z,31.06
2019-03-12T21:36:15.714Z,31.08
2019-03-12T21:38:44.344Z,31.48
2019-03-12T21:41:12.845Z,31.19
2019-03-12T21:43:41.268Z,31.24
2019-03-12T21:46:09.794Z,30.63
2019-03-12T21:48:38.229Z,30.29
2019-03-12T21:51:06.903Z,30.20
2019-03-12T21:53:35.329Z,30.04
2019-03-12T21:56:03.934Z,29.93
2019-03-12T21:58:32.340Z,29.86
2019-03-12T22:01:00.786Z,29.85
2019-03-12T22:03:29.195Z,29.89
2019-03-12T22:05:57.623Z,29.94
2019-03-12T22:08:26.057Z,29.95
2019-03-12T22:10:54.869Z,30.02
2019-03-12T22:13:23.277Z,30.11
2019-03-12T22:15:51.724Z,30.14
2019-03-12T22:18:20.130Z,30.20
2019-03-12T22:20:51.233Z,30.28
2019-03-12T22:23:20.348Z,30.32
2019-03-12T22:25:48.763Z,30.35
2019-03-12T22:28:17.198Z,30.38
2019-03-12T22:30:45.591Z,30.44
2019-03-12T22:33:14.018Z,30.49
2019-03-12T22:35:42.415Z,30.49
2019-03-12T22:38:10.848Z,30.57
2019-03-12T22:40:39.260Z,30.57
2019-03-12T22:43:07.696Z,30.58
2019-03-12T22:45:36.120Z,30.64
2019-03-12T22:48:04.528Z,30.70
2019-03-12T22:50:32.954Z,30.69
2019-03-12T22:53:01.388Z,30.74
2019-03-12T22:55:29.812Z,30.77
2019-03-12T22:57:58.235Z,30.80
2019-03-12T23:00:28.304Z,30.81
2019-03-12T23:02:56.799Z,30.90
2019-03-12T23:05:25.220Z,30.91
2019-03-12T23:07:53.699Z,30.95
2019-03-12T23:10:22.429Z,30.95
2019-03-12T23:12:50.913Z,31.00
2019-03-12T23:15:20.067Z,31.04
2019-03-12T23:17:48.498Z,31.06
2019-03-12T23:20:21.232Z,31.08
2019-03-12T23:22:52.085Z,31.11
2019-03-12T23:25:19.958Z,31.11
2019-03-12T23:27:48.416Z,31.13
2019-03-12T23:30:21.559Z,31.17
2019-03-12T23:32:50.003Z,31.17
2019-03-12T23:35:18.583Z,31.20
2019-03-12T23:37:47.055Z,31.24
2019-03-12T23:40:16.948Z,31.25
2019-03-12T23:42:45.717Z,31.27
2019-03-12T23:45:17.328Z,31.30
2019-03-12T23:47:45.941Z,31.32
2019-03-12T23:50:18.586Z,31.37
2019-03-12T23:52:47.254Z,31.38
2019-03-12T23:55:19.061Z,31.41
2019-03-12T23:57:47.550Z,31.43
